APA110A LEPA-EDDM
Flight info
| Callsign | APA110A |
|---|---|
| Flight time | N/A |
| Altitude | 32000 |
| Route | MEROS DCT LAPIT DCT CHELY DCT LUMAS/N0434F340 DCT UNANA/N0424F300 DCT STP/N0439F360 DCT RAPED DCT PIGOS DCT EKSID DCT NOSTA DCT NOPMU DCT VAKON DCT TAGIP DCT GUNGO DCT TISAX DCT IVKAL T102 NINUR T101 BETOS BETOS1B |
| Aircraft | A321/M-SDE3FGHIRWY/LB1 |
Departure
| Time | 2026-05-06 19:25 |
|---|---|
| Airport | Palma de Mallorca Airport (LEPA) |
Arrival
| Time | N/A |
|---|---|
| Airport | Munich Airport (EDDM) |
| Time | Latitude | Longitude | Altitude | Speed | Heading |
|---|---|---|---|---|---|
| 2026-05-06 18:32 | 39.55023 | 2.73488 | 39 ft | 0 kts | 165° |
| 2026-05-06 19:15 | 39.55024 | 2.73487 | 10 ft | 2 kts | 165° |
| 2026-05-06 19:15 | 39.55044 | 2.73480 | 38 ft | 4 kts | 166° |
| 2026-05-06 19:15 | 39.55069 | 2.73479 | 37 ft | 4 kts | 207° |
| 2026-05-06 19:15 | 39.55088 | 2.73501 | 37 ft | 3 kts | 238° |
| 2026-05-06 19:16 | 39.55092 | 2.73510 | 37 ft | 0 kts | 239° |
| 2026-05-06 19:18 | 39.55078 | 2.73480 | 36 ft | 9 kts | 239° |
| 2026-05-06 19:18 | 39.55043 | 2.73405 | 37 ft | 9 kts | 239° |
| 2026-05-06 19:18 | 39.55062 | 2.73361 | 37 ft | 5 kts | 14° |
| 2026-05-06 19:18 | 39.55087 | 2.73402 | 38 ft | 9 kts | 57° |
| 2026-05-06 19:19 | 39.55134 | 2.73502 | 38 ft | 14 kts | 59° |
| 2026-05-06 19:19 | 39.55177 | 2.73604 | 38 ft | 10 kts | 79° |
| 2026-05-06 19:19 | 39.55174 | 2.73679 | 38 ft | 8 kts | 70° |
| 2026-05-06 19:19 | 39.55172 | 2.73740 | 38 ft | 7 kts | 115° |
| 2026-05-06 19:20 | 39.55176 | 2.73804 | 38 ft | 8 kts | 64° |
| 2026-05-06 19:20 | 39.55158 | 2.73864 | 37 ft | 11 kts | 140° |
| 2026-05-06 19:20 | 39.55089 | 2.73919 | 38 ft | 11 kts | 148° |
| 2026-05-06 19:20 | 39.55022 | 2.73972 | 38 ft | 12 kts | 148° |
| 2026-05-06 19:21 | 39.54928 | 2.74048 | 38 ft | 17 kts | 148° |
| 2026-05-06 19:21 | 39.54827 | 2.74119 | 38 ft | 13 kts | 165° |
| 2026-05-06 19:21 | 39.54763 | 2.74071 | 38 ft | 11 kts | 235° |
| 2026-05-06 19:21 | 39.54704 | 2.73948 | 38 ft | 27 kts | 238° |
| 2026-05-06 19:22 | 39.54606 | 2.73744 | 38 ft | 21 kts | 238° |
| 2026-05-06 19:22 | 39.54532 | 2.73587 | 38 ft | 20 kts | 239° |
| 2026-05-06 19:22 | 39.54462 | 2.73437 | 38 ft | 19 kts | 239° |
| 2026-05-06 19:22 | 39.54395 | 2.73296 | 38 ft | 18 kts | 238° |
| 2026-05-06 19:23 | 39.54332 | 2.73162 | 38 ft | 17 kts | 239° |
| 2026-05-06 19:23 | 39.54273 | 2.73036 | 38 ft | 16 kts | 238° |
| 2026-05-06 19:23 | 39.54211 | 2.72927 | 38 ft | 13 kts | 213° |
| 2026-05-06 19:23 | 39.54160 | 2.72951 | 38 ft | 7 kts | 117° |
| 2026-05-06 19:24 | 39.54154 | 2.72979 | 38 ft | 0 kts | 100° |
| 2026-05-06 19:24 | 39.54153 | 2.73000 | 38 ft | 9 kts | 94° |
| 2026-05-06 19:24 | 39.54151 | 2.73135 | 38 ft | 16 kts | 90° |
| 2026-05-06 19:24 | 39.54178 | 2.73278 | 38 ft | 20 kts | 59° |
| 2026-05-06 19:25 | 39.54310 | 2.73558 | 38 ft | 66 kts | 58° |
| 2026-05-06 19:25 | 39.54664 | 2.74307 | 39 ft | 126 kts | 58° |
| 2026-05-06 19:25 | 39.55209 | 2.75446 | 49 ft | 168 kts | 58° |
| 2026-05-06 19:25 | 39.55813 | 2.76726 | 639 ft | 164 kts | 59° |
| 2026-05-06 19:26 | 39.56399 | 2.77998 | 1264 ft | 164 kts | 60° |
| 2026-05-06 19:26 | 39.56988 | 2.79290 | 1814 ft | 169 kts | 60° |
| 2026-05-06 19:26 | 39.57596 | 2.80635 | 2228 ft | 181 kts | 61° |
| 2026-05-06 19:26 | 39.58258 | 2.82110 | 2496 ft | 196 kts | 61° |
| 2026-05-06 19:27 | 39.58957 | 2.83681 | 2858 ft | 206 kts | 61° |
| 2026-05-06 19:27 | 39.59684 | 2.85310 | 3184 ft | 217 kts | 61° |
| 2026-05-06 19:27 | 39.60487 | 2.87063 | 3520 ft | 230 kts | 59° |
| 2026-05-06 19:27 | 39.61293 | 2.88777 | 4253 ft | 223 kts | 60° |
| 2026-05-06 19:28 | 39.62085 | 2.90514 | 4876 ft | 225 kts | 60° |
| 2026-05-06 19:28 | 39.62888 | 2.92326 | 5190 ft | 242 kts | 61° |
| 2026-05-06 19:28 | 39.63738 | 2.94289 | 5549 ft | 254 kts | 61° |
| 2026-05-06 19:28 | 39.64615 | 2.96327 | 5983 ft | 267 kts | 61° |
| 2026-05-06 19:29 | 39.65536 | 2.98470 | 6585 ft | 276 kts | 61° |
| 2026-05-06 19:29 | 39.66478 | 3.00657 | 7299 ft | 280 kts | 60° |
| 2026-05-06 19:29 | 39.67437 | 3.02877 | 8021 ft | 284 kts | 60° |
| 2026-05-06 19:29 | 39.68412 | 3.05128 | 8751 ft | 288 kts | 60° |
| 2026-05-06 19:30 | 39.69400 | 3.07410 | 9465 ft | 292 kts | 60° |
| 2026-05-06 19:30 | 39.70402 | 3.09722 | 10158 ft | 296 kts | 60° |
| 2026-05-06 19:30 | 39.71446 | 3.12132 | 10413 ft | 317 kts | 60° |
| 2026-05-06 19:30 | 39.72565 | 3.14720 | 10564 ft | 339 kts | 60° |
| 2026-05-06 19:31 | 39.73740 | 3.17441 | 11016 ft | 349 kts | 60° |
| 2026-05-06 19:31 | 39.74936 | 3.20220 | 11614 ft | 355 kts | 60° |
| 2026-05-06 19:31 | 39.77421 | 3.25890 | 12801 ft | 367 kts | 55° |
| 2026-05-06 19:32 | 39.79025 | 3.28495 | 13395 ft | 372 kts | 47° |
| 2026-05-06 19:32 | 39.80734 | 3.31045 | 13988 ft | 376 kts | 47° |
| 2026-05-06 19:32 | 39.82462 | 3.33628 | 14548 ft | 381 kts | 47° |
| 2026-05-06 19:32 | 39.84206 | 3.36241 | 15125 ft | 384 kts | 47° |
| 2026-05-06 19:33 | 39.85966 | 3.38881 | 15692 ft | 388 kts | 47° |
| 2026-05-06 19:33 | 39.87747 | 3.41554 | 16247 ft | 392 kts | 47° |
| 2026-05-06 19:33 | 39.89542 | 3.44250 | 16813 ft | 396 kts | 47° |
| 2026-05-06 19:33 | 39.91352 | 3.46975 | 17368 ft | 400 kts | 47° |
| 2026-05-06 19:34 | 39.93179 | 3.49734 | 17929 ft | 404 kts | 47° |
| 2026-05-06 19:34 | 39.94996 | 3.52481 | 18427 ft | 407 kts | 47° |
| 2026-05-06 19:34 | 39.96854 | 3.55291 | 18888 ft | 411 kts | 47° |
| 2026-05-06 19:34 | 39.98730 | 3.58128 | 19333 ft | 416 kts | 47° |
| 2026-05-06 19:35 | 40.00628 | 3.60994 | 19778 ft | 419 kts | 47° |
| 2026-05-06 19:35 | 40.02567 | 3.63923 | 20231 ft | 423 kts | 47° |
| 2026-05-06 19:35 | 40.04494 | 3.66849 | 20681 ft | 426 kts | 47° |
| 2026-05-06 19:35 | 40.06431 | 3.69798 | 21130 ft | 430 kts | 47° |
| 2026-05-06 19:36 | 40.08384 | 3.72769 | 21568 ft | 433 kts | 47° |
| 2026-05-06 19:36 | 40.10352 | 3.75759 | 22010 ft | 436 kts | 47° |